Terminal Aerodrome Forecast
Issued by NWS

Home | Current Version | Previous Version | Graphics & Text | Print | Product List | Glossary On
Versions: 1 2 3 4 5 6 7 8 9 10 11 12 13 14 15 16 17 18 19
000
FTUS43 KOAX 301221 AAA
TAFCDR
TAF AMD
KCDR 301221Z 3012/3112 18010KT P6SM SCT250
     FM301500 21015G25KT P6SM SCT250
     FM310600 21013KT P6SM FEW080 BKN150=

USA.gov is the U.S. government's official web portal to all federal, state and local government web resources and services.